Time;durP1;ratioP1;P1;durP2;ratioP2;P2;SDS_P1;SDS_P2;PMS_P1;PMS_P2;Temp;Humidity;BMP_temperature;BMP_pressure;BME280_temperature;BME280_humidity;BME280_pressure;Samples;Min_cycle;Max_cycle;Signal;HPM_P1;HPM_P2
2023/08/26 00:00:03;;;;;;;11.00;6.10;;;21.60;98.00;;;;;;5050641;28;20481;-66
2023/08/26 00:02:30;;;;;;;9.30;5.40;;;21.60;98.00;;;;;;5050739;28;20456;-67
2023/08/26 00:04:57;;;;;;;9.63;5.33;;;21.70;98.00;;;;;;5050595;28;20488;-66
2023/08/26 00:07:24;;;;;;;10.50;5.73;;;21.70;98.00;;;;;;5050695;28;20457;-68
2023/08/26 00:09:51;;;;;;;11.00;5.43;;;21.90;98.00;;;;;;5049332;28;20982;-67
2023/08/26 00:12:18;;;;;;;12.70;6.30;;;21.90;98.00;;;;;;5050591;28;20453;-67
2023/08/26 00:14:46;;;;;;;11.10;5.43;;;21.90;98.00;;;;;;5050886;28;20947;-67
2023/08/26 00:17:14;;;;;;;8.53;5.13;;;21.90;98.00;;;;;;5050657;28;20461;-67
2023/08/26 00:19:44;;;;;;;9.07;5.20;;;21.90;98.00;;;;;;5050898;28;20472;-67
2023/08/26 00:22:12;;;;;;;10.67;6.27;;;22.00;98.00;;;;;;5051591;28;20507;-68
2023/08/26 00:24:39;;;;;;;10.53;5.90;;;21.90;98.00;;;;;;5053948;28;20492;-67
2023/08/26 00:27:06;;;;;;;12.40;5.77;;;21.80;98.00;;;;;;5053016;28;20476;-67
2023/08/26 00:29:33;;;;;;;13.17;6.03;;;21.60;98.00;;;;;;5054032;28;20521;-67
2023/08/26 00:32:00;;;;;;;10.03;6.03;;;21.60;98.00;;;;;;5052956;28;20838;-67
2023/08/26 00:34:29;;;;;;;11.60;6.20;;;21.60;98.00;;;;;;5053790;28;20457;-67
2023/08/26 00:36:56;;;;;;;10.63;5.47;;;21.70;98.00;;;;;;5054034;28;20457;-66
2023/08/26 00:39:23;;;;;;;8.90;5.80;;;21.70;98.00;;;;;;5053841;28;20456;-68
2023/08/26 00:41:50;;;;;;;11.53;5.70;;;21.80;98.00;;;;;;5052797;28;20939;-67
2023/08/26 00:44:17;;;;;;;9.77;5.73;;;21.90;98.00;;;;;;5053787;28;20462;-67
2023/08/26 00:46:44;;;;;;;9.40;5.60;;;22.00;98.00;;;;;;5052546;28;20485;-67
2023/08/26 00:49:13;;;;;;;10.47;5.83;;;21.90;98.00;;;;;;5053761;28;20831;-67
2023/08/26 00:51:44;;;;;;;9.37;5.70;;;21.80;98.00;;;;;;5052271;28;20461;-68
2023/08/26 00:54:12;;;;;;;11.10;5.03;;;21.70;98.00;;;;;;5053448;28;20450;-67
2023/08/26 00:56:39;;;;;;;8.53;4.87;;;21.70;98.00;;;;;;5053602;28;20471;-67
2023/08/26 00:59:06;;;;;;;8.80;5.00;;;21.60;98.00;;;;;;5053644;28;20528;-67
2023/08/26 01:01:34;;;;;;;8.83;5.00;;;21.70;98.00;;;;;;5053496;28;20453;-67
2023/08/26 01:04:01;;;;;;;8.33;4.83;;;21.60;98.00;;;;;;5052216;28;20469;-68
2023/08/26 01:06:28;;;;;;;9.33;5.20;;;21.50;98.00;;;;;;5053445;28;20497;-67
2023/08/26 01:08:57;;;;;;;8.37;4.87;;;21.50;98.00;;;;;;5053434;28;20454;-68
2023/08/26 01:11:34;;;;;;;8.03;4.70;;;21.60;98.00;;;;;;5053663;28;20484;-67
2023/08/26 01:14:08;;;;;;;7.50;4.93;;;21.50;98.00;;;;;;5053727;28;20460;-68
2023/08/26 01:16:36;;;;;;;10.03;5.10;;;21.50;98.00;;;;;;5053627;28;20458;-67
2023/08/26 01:19:05;;;;;;;6.50;4.63;;;21.50;98.00;;;;;;5053305;28;20844;-68
2023/08/26 01:21:36;;;;;;;8.83;4.90;;;21.50;98.00;;;;;;5053278;28;20828;-69
2023/08/26 01:24:07;;;;;;;10.17;5.10;;;21.50;98.00;;;;;;5052851;28;20511;-66
2023/08/26 01:26:34;;;;;;;8.70;4.70;;;21.50;98.00;;;;;;5051781;28;20485;-67
2023/08/26 01:29:01;;;;;;;10.40;4.97;;;21.50;98.00;;;;;;5052993;28;20450;-68
2023/08/26 01:31:32;;;;;;;10.10;4.70;;;21.40;98.00;;;;;;5052986;28;20461;-67
2023/08/26 01:34:07;;;;;;;8.80;4.80;;;21.30;98.00;;;;;;5052287;28;20446;-69
2023/08/26 01:36:38;;;;;;;9.00;4.73;;;21.20;98.00;;;;;;5052965;28;20485;-67
2023/08/26 01:39:07;;;;;;;8.20;4.67;;;21.10;98.00;;;;;;5052713;28;20454;-66
2023/08/26 01:41:38;;;;;;;13.00;5.20;;;21.20;98.00;;;;;;5051569;28;20974;-67
2023/08/26 01:44:06;;;;;;;7.33;4.10;;;21.30;98.00;;;;;;5052864;28;20458;-67
2023/08/26 01:46:37;;;;;;;9.13;4.63;;;21.50;98.00;;;;;;5052633;28;20489;-69
2023/08/26 01:49:05;;;;;;;9.50;4.67;;;21.50;98.00;;;;;;5052613;28;20457;-67
2023/08/26 01:51:33;;;;;;;7.60;4.50;;;21.50;98.00;;;;;;5052580;28;20453;-67
2023/08/26 01:54:00;;;;;;;10.10;5.23;;;21.40;98.00;;;;;;5052469;28;20464;-67
2023/08/26 01:56:29;;;;;;;7.07;4.30;;;21.30;98.00;;;;;;5051372;28;20450;-67
2023/08/26 01:58:56;;;;;;;6.73;4.47;;;21.30;98.00;;;;;;5051172;28;20442;-68
2023/08/26 02:01:23;;;;;;;8.30;4.30;;;21.40;98.00;;;;;;5052488;28;20461;-66
2023/08/26 02:03:50;;;;;;;10.17;5.37;;;21.40;98.00;;;;;;5052213;28;20450;-68
2023/08/26 02:06:18;;;;;;;9.50;4.63;;;21.30;98.00;;;;;;5052473;28;20481;-68
2023/08/26 02:08:45;;;;;;;9.27;4.63;;;21.20;98.00;;;;;;5052504;28;20465;-68
2023/08/26 02:11:13;;;;;;;9.30;4.80;;;21.20;98.00;;;;;;5052600;28;20944;-68
2023/08/26 02:13:41;;;;;;;7.20;4.47;;;21.10;98.00;;;;;;5052117;28;20475;-67
2023/08/26 02:16:10;;;;;;;6.70;4.10;;;21.10;98.00;;;;;;5052055;28;20457;-67
2023/08/26 02:18:37;;;;;;;7.40;4.10;;;21.10;98.00;;;;;;5050573;28;21057;-67
2023/08/26 02:21:05;;;;;;;7.53;4.73;;;21.10;98.00;;;;;;5051992;28;20461;-68
2023/08/26 02:23:32;;;;;;;7.10;4.50;;;21.00;98.00;;;;;;5051917;28;20493;-67
2023/08/26 02:25:59;;;;;;;11.67;4.90;;;20.90;98.00;;;;;;5051664;28;21073;-67
2023/08/26 02:28:26;;;;;;;9.77;4.77;;;20.80;98.00;;;;;;5051730;28;20457;-67
2023/08/26 02:30:54;;;;;;;9.73;4.57;;;20.80;98.00;;;;;;5051768;28;20449;-69
2023/08/26 02:33:22;;;;;;;7.70;4.27;;;20.80;98.00;;;;;;5051720;28;20462;-67
2023/08/26 02:35:49;;;;;;;7.03;4.40;;;20.80;98.00;;;;;;5051809;28;20446;-67
2023/08/26 02:38:16;;;;;;;7.83;3.70;;;20.80;98.00;;;;;;5051556;28;20445;-68
2023/08/26 02:40:52;;;;;;;6.20;3.80;;;20.90;98.00;;;;;;5051732;28;20453;-68
2023/08/26 02:43:19;;;;;;;5.80;3.83;;;20.90;98.00;;;;;;5051660;28;20461;-67
2023/08/26 02:45:46;;;;;;;8.93;4.00;;;20.80;98.00;;;;;;5050723;28;20525;-68
2023/08/26 02:48:15;;;;;;;8.17;4.07;;;20.90;98.00;;;;;;5051422;28;20449;-68
2023/08/26 02:50:42;;;;;;;6.23;3.30;;;21.10;98.00;;;;;;5051608;28;20802;-67
2023/08/26 02:53:09;;;;;;;7.73;4.03;;;21.20;98.00;;;;;;5051695;28;20458;-68
2023/08/26 02:55:36;;;;;;;5.97;3.73;;;21.20;98.00;;;;;;5051414;28;20515;-67
2023/08/26 02:58:04;;;;;;;6.03;3.53;;;21.10;98.00;;;;;;5050222;28;20990;-67
2023/08/26 03:00:33;;;;;;;7.73;3.67;;;21.10;98.00;;;;;;5051530;28;20450;-68
2023/08/26 03:03:00;;;;;;;6.17;3.60;;;21.00;98.00;;;;;;5033846;28;20511;-67
2023/08/26 03:05:28;;;;;;;6.23;3.20;;;21.10;98.00;;;;;;5051109;28;21025;-69
2023/08/26 03:07:55;;;;;;;4.93;3.37;;;21.20;98.00;;;;;;5051174;28;20462;-68
2023/08/26 03:10:25;;;;;;;6.87;4.00;;;21.40;98.00;;;;;;5051221;28;20446;-67
2023/08/26 03:12:54;;;;;;;4.53;3.40;;;21.30;98.00;;;;;;5051303;28;20465;-67
2023/08/26 03:15:23;;;;;;;8.40;3.70;;;21.20;98.00;;;;;;5051136;28;20450;-68
2023/08/26 03:17:50;;;;;;;5.80;3.33;;;21.10;98.00;;;;;;5033446;28;20450;-68
2023/08/26 03:20:17;;;;;;;9.07;3.77;;;20.90;98.00;;;;;;5050971;28;20469;-67
2023/08/26 03:22:46;;;;;;;5.03;3.50;;;20.90;98.00;;;;;;5051125;28;20457;-67
2023/08/26 03:25:13;;;;;;;7.73;3.53;;;20.80;98.00;;;;;;5050864;28;20866;-68
2023/08/26 03:27:41;;;;;;;5.17;3.57;;;20.90;98.00;;;;;;5050909;28;20441;-67
2023/08/26 03:30:09;;;;;;;5.23;3.83;;;21.00;98.00;;;;;;5051020;28;20512;-68
2023/08/26 03:32:36;;;;;;;8.73;4.33;;;21.00;98.00;;;;;;5050982;28;20979;-68
2023/08/26 03:35:03;;;;;;;5.93;3.83;;;20.90;98.00;;;;;;5050629;28;20453;-68
2023/08/26 03:37:37;;;;;;;5.80;4.23;;;21.10;98.00;;;;;;5051124;28;21050;-68
2023/08/26 03:40:09;;;;;;;6.37;3.73;;;21.10;98.00;;;;;;5051064;28;20454;-68
2023/08/26 03:42:38;;;;;;;5.07;3.30;;;21.10;98.00;;;;;;5050927;28;20445;-67
2023/08/26 03:45:07;;;;;;;6.90;3.97;;;21.10;98.00;;;;;;5049777;28;20493;-69
2023/08/26 03:47:35;;;;;;;5.53;3.20;;;21.00;98.00;;;;;;5050763;28;20485;-68
2023/08/26 03:50:03;;;;;;;5.70;3.77;;;21.00;98.00;;;;;;5050385;28;20453;-68
2023/08/26 03:52:30;;;;;;;6.57;3.60;;;21.00;98.00;;;;;;5050795;28;20450;-67
2023/08/26 03:54:57;;;;;;;5.77;3.70;;;21.20;98.00;;;;;;5051322;28;20449;-67
2023/08/26 03:57:25;;;;;;;5.57;3.47;;;21.00;98.00;;;;;;5050992;28;20548;-67
2023/08/26 03:59:52;;;;;;;8.00;4.10;;;20.80;98.00;;;;;;5054666;28;20446;-67
2023/08/26 04:02:20;;;;;;;7.60;3.40;;;20.80;98.00;;;;;;5053564;28;20472;-67
2023/08/26 04:04:47;;;;;;;6.03;3.70;;;20.70;98.00;;;;;;5053551;28;20454;-68
2023/08/26 04:07:14;;;;;;;7.50;3.60;;;20.70;98.00;;;;;;5036990;28;20484;-67
2023/08/26 04:09:42;;;;;;;10.50;4.40;;;20.50;98.00;;;;;;5054616;28;20468;-67
2023/08/26 04:12:09;;;;;;;5.60;3.60;;;20.60;98.00;;;;;;5053258;28;20450;-69
2023/08/26 04:14:38;;;;;;;6.83;3.90;;;20.50;98.00;;;;;;5054374;28;20454;-67
2023/08/26 04:17:05;;;;;;;6.97;4.10;;;20.50;98.00;;;;;;5054664;28;20519;-68
2023/08/26 04:19:33;;;;;;;6.13;3.57;;;20.70;98.00;;;;;;5054275;28;20484;-68
2023/08/26 04:22:01;;;;;;;7.70;3.93;;;20.80;98.00;;;;;;5054468;28;20506;-67
2023/08/26 04:24:28;;;;;;;9.73;3.90;;;20.70;98.00;;;;;;5054113;28;20931;-67
2023/08/26 04:26:55;;;;;;;6.67;4.20;;;20.70;98.00;;;;;;5052984;28;20569;-67
2023/08/26 04:29:22;;;;;;;6.53;3.73;;;20.80;98.00;;;;;;5054146;28;20485;-68
2023/08/26 04:31:52;;;;;;;6.20;4.23;;;20.80;98.00;;;;;;5053005;28;20453;-67
2023/08/26 04:34:19;;;;;;;12.57;4.50;;;20.70;98.00;;;;;;5053985;28;20445;-67
2023/08/26 04:36:47;;;;;;;5.43;3.63;;;20.70;98.00;;;;;;5053975;28;20953;-66
2023/08/26 04:39:17;;;;;;;9.63;4.20;;;20.60;98.00;;;;;;5054010;28;20540;-67
2023/08/26 04:41:44;;;;;;;9.83;4.03;;;20.70;98.00;;;;;;5053961;28;20528;-67
2023/08/26 04:44:12;;;;;;;7.77;4.07;;;20.70;98.00;;;;;;5054130;28;20454;-69
2023/08/26 04:46:42;;;;;;;10.37;4.10;;;20.80;98.00;;;;;;5053738;28;20838;-68
2023/08/26 04:49:10;;;;;;;6.63;3.83;;;20.70;98.00;;;;;;5052992;28;20457;-70
2023/08/26 04:51:39;;;;;;;7.63;4.20;;;20.80;98.00;;;;;;5053952;28;20458;-67
2023/08/26 04:54:06;;;;;;;5.90;3.70;;;20.80;98.00;;;;;;5053703;28;20460;-67
2023/08/26 04:56:33;;;;;;;8.40;4.37;;;20.80;98.00;;;;;;5053668;28;20468;-69
2023/08/26 04:59:00;;;;;;;9.10;4.90;;;20.80;98.00;;;;;;5053485;28;20449;-67
2023/08/26 05:01:27;;;;;;;6.33;3.57;;;20.80;98.00;;;;;;5052236;28;20554;-67
2023/08/26 05:03:54;;;;;;;8.50;4.20;;;20.80;98.00;;;;;;5053331;28;20454;-67
2023/08/26 05:06:22;;;;;;;9.23;4.03;;;20.80;98.00;;;;;;5051943;28;20478;-67
2023/08/26 05:08:50;;;;;;;11.43;4.23;;;20.80;98.00;;;;;;5052398;28;20450;-67
2023/08/26 05:11:17;;;;;;;7.23;3.30;;;20.90;98.00;;;;;;5053394;28;20445;-69
2023/08/26 05:13:44;;;;;;;5.93;3.67;;;20.80;98.00;;;;;;5053248;28;20462;-67
2023/08/26 05:16:11;;;;;;;5.30;3.60;;;20.80;98.00;;;;;;5053380;28;20450;-67
2023/08/26 05:18:38;;;;;;;7.80;3.93;;;20.90;98.00;;;;;;5051794;28;20454;-67
2023/08/26 05:21:05;;;;;;;8.57;4.23;;;20.90;98.00;;;;;;5053218;28;20454;-68
2023/08/26 05:23:33;;;;;;;7.90;4.03;;;20.90;98.00;;;;;;5052952;28;20496;-67
2023/08/26 05:26:00;;;;;;;8.17;4.20;;;20.80;98.00;;;;;;5052868;28;20467;-67
2023/08/26 05:28:27;;;;;;;7.43;4.30;;;20.70;98.00;;;;;;5052863;28;20446;-69
2023/08/26 05:30:55;;;;;;;12.87;4.67;;;20.80;98.00;;;;;;5053187;28;20453;-67
2023/08/26 05:33:22;;;;;;;16.10;4.30;;;20.80;98.00;;;;;;5051287;28;20952;-67
2023/08/26 05:35:49;;;;;;;8.20;4.07;;;20.70;98.00;;;;;;5052960;28;20446;-67
2023/08/26 05:38:16;;;;;;;9.73;3.90;;;20.70;98.00;;;;;;5052831;28;20456;-67
2023/08/26 05:40:45;;;;;;;10.77;4.37;;;20.80;98.00;;;;;;5052932;28;20537;-68
2023/08/26 05:43:12;;;;;;;7.33;4.10;;;20.70;98.00;;;;;;5052628;28;20445;-67
2023/08/26 05:45:40;;;;;;;5.60;3.67;;;20.70;98.00;;;;;;5035088;28;20453;-69
2023/08/26 05:48:08;;;;;;;7.07;4.37;;;20.70;98.00;;;;;;5052754;28;20886;-67
2023/08/26 05:50:35;;;;;;;6.60;3.90;;;20.70;98.00;;;;;;5052289;28;20579;-67
2023/08/26 05:53:02;;;;;;;7.37;3.63;;;20.80;98.00;;;;;;5052691;28;20449;-67
2023/08/26 05:55:29;;;;;;;6.17;3.93;;;20.80;98.00;;;;;;5051572;28;20446;-68
2023/08/26 05:57:57;;;;;;;5.50;3.67;;;20.80;98.00;;;;;;5052804;28;20523;-68
2023/08/26 06:00:26;;;;;;;9.97;4.20;;;20.80;98.00;;;;;;5052569;28;20947;-67
2023/08/26 06:02:53;;;;;;;8.13;3.90;;;20.80;98.00;;;;;;5052625;28;20962;-67
2023/08/26 06:05:21;;;;;;;6.17;3.63;;;20.80;98.00;;;;;;5052456;28;20462;-68
2023/08/26 06:07:49;;;;;;;5.30;3.50;;;20.70;98.00;;;;;;5052073;28;20520;-67
2023/08/26 06:10:16;;;;;;;5.70;3.70;;;20.70;98.00;;;;;;5052330;28;20446;-67
2023/08/26 06:12:43;;;;;;;7.60;4.70;;;20.70;98.00;;;;;;5051192;28;20461;-68
2023/08/26 06:15:12;;;;;;;10.63;5.33;;;20.70;98.00;;;;;;5052390;28;20824;-67
2023/08/26 06:17:41;;;;;;;8.23;4.00;;;20.70;98.00;;;;;;5052203;28;20515;-66
2023/08/26 06:20:09;;;;;;;5.40;3.63;;;20.80;98.00;;;;;;5051105;28;20484;-67
2023/08/26 06:22:36;;;;;;;7.30;3.87;;;20.70;98.00;;;;;;5051076;28;20507;-67
2023/08/26 06:25:05;;;;;;;5.80;3.87;;;20.80;98.00;;;;;;5050762;28;20457;-66
2023/08/26 06:27:33;;;;;;;5.00;3.53;;;20.90;98.00;;;;;;5051923;28;20521;-67
2023/08/26 06:30:03;;;;;;;6.50;3.70;;;21.00;98.00;;;;;;5051959;28;20947;-68
2023/08/26 06:32:32;;;;;;;6.93;3.67;;;21.10;98.00;;;;;;5052006;28;20453;-68
2023/08/26 06:34:59;;;;;;;6.83;3.67;;;21.20;98.00;;;;;;5050678;28;20943;-67
2023/08/26 06:37:26;;;;;;;7.50;3.80;;;21.20;98.00;;;;;;5051945;28;20453;-68
2023/08/26 06:39:53;;;;;;;8.73;3.87;;;21.20;98.00;;;;;;5052079;28;20472;-66
2023/08/26 06:42:21;;;;;;;6.60;3.40;;;21.20;98.00;;;;;;5052118;28;20454;-71
2023/08/26 06:44:48;;;;;;;6.00;3.60;;;21.40;98.00;;;;;;5050623;28;20446;-70
2023/08/26 06:47:15;;;;;;;6.57;3.73;;;21.70;98.00;;;;;;5051996;28;20859;-70
2023/08/26 06:49:44;;;;;;;14.90;3.77;;;22.00;98.00;;;;;;5051790;28;20458;-70
2023/08/26 06:52:11;;;;;;;5.63;3.53;;;22.30;98.00;;;;;;5051766;28;20462;-70
2023/08/26 06:54:38;;;;;;;6.27;3.60;;;22.50;98.00;;;;;;5051830;28;20453;-70
2023/08/26 06:57:05;;;;;;;5.50;3.60;;;22.70;98.00;;;;;;5050365;28;20449;-71
2023/08/26 06:59:33;;;;;;;4.70;3.20;;;22.90;98.00;;;;;;5051621;28;20461;-70
2023/08/26 07:02:00;;;;;;;5.13;3.57;;;23.10;98.00;;;;;;5050457;28;20442;-70
2023/08/26 07:04:27;;;;;;;6.57;3.70;;;23.20;98.00;;;;;;5051610;28;20454;-70
2023/08/26 07:06:56;;;;;;;5.47;3.50;;;23.40;98.00;;;;;;5051586;28;20900;-69
2023/08/26 07:09:23;;;;;;;6.03;3.87;;;23.50;98.00;;;;;;5051389;28;20453;-70
2023/08/26 07:11:52;;;;;;;7.73;3.80;;;23.30;98.00;;;;;;5051487;28;20557;-69
2023/08/26 07:14:19;;;;;;;5.90;3.57;;;23.20;98.00;;;;;;5051201;28;20445;-71
2023/08/26 07:16:46;;;;;;;5.97;3.83;;;23.40;98.00;;;;;;5051649;28;20457;-70
2023/08/26 07:19:13;;;;;;;5.67;3.70;;;23.60;98.00;;;;;;5050086;28;20454;-70
2023/08/26 07:21:41;;;;;;;14.07;3.67;;;23.80;98.00;;;;;;5050136;28;20822;-70
2023/08/26 07:24:09;;;;;;;6.70;4.10;;;24.00;98.00;;;;;;5051079;28;20469;-70
2023/08/26 07:26:36;;;;;;;6.40;4.07;;;24.10;98.00;;;;;;5051415;28;20457;-70
2023/08/26 07:29:04;;;;;;;5.43;3.40;;;24.20;98.00;;;;;;5051147;28;20536;-70
2023/08/26 07:31:32;;;;;;;9.60;4.23;;;24.40;98.00;;;;;;5050057;28;20515;-70
2023/08/26 07:34:00;;;;;;;10.07;4.30;;;24.40;98.00;;;;;;5051144;28;20460;-70
2023/08/26 07:36:27;;;;;;;6.30;3.90;;;24.40;98.00;;;;;;5051083;28;20453;-70
2023/08/26 07:38:57;;;;;;;6.23;3.90;;;24.40;98.00;;;;;;5050909;28;20462;-66
2023/08/26 07:41:25;;;;;;;8.20;3.90;;;24.20;98.00;;;;;;5050553;28;20512;-66
2023/08/26 07:43:54;;;;;;;5.83;3.70;;;24.00;98.00;;;;;;5050731;28;20457;-66
2023/08/26 07:46:23;;;;;;;12.07;4.33;;;23.70;98.00;;;;;;5050899;28;20525;-66
2023/08/26 07:48:50;;;;;;;6.20;3.97;;;23.50;98.00;;;;;;5050670;28;20579;-67
2023/08/26 07:51:18;;;;;;;6.60;3.63;;;23.40;98.00;;;;;;5050815;28;20450;-65
2023/08/26 07:53:46;;;;;;;6.00;3.90;;;23.40;98.00;;;;;;5050758;28;20496;-66
2023/08/26 07:56:13;;;;;;;7.57;3.97;;;23.40;98.00;;;;;;5050715;28;20822;-66
2023/08/26 07:58:41;;;;;;;5.37;3.60;;;23.40;98.00;;;;;;5050738;28;20445;-66
2023/08/26 08:01:08;;;;;;;6.40;3.83;;;23.50;98.00;;;;;;5050545;28;20454;-67
2023/08/26 08:03:35;;;;;;;6.43;3.93;;;23.60;98.00;;;;;;5050628;28;20461;-67
2023/08/26 08:06:02;;;;;;;7.07;4.00;;;23.70;98.00;;;;;;5049452;28;20450;-66
2023/08/26 08:08:29;;;;;;;7.40;4.23;;;23.60;98.00;;;;;;5050893;28;20922;-67
2023/08/26 08:10:56;;;;;;;6.83;4.17;;;23.60;98.00;;;;;;5050689;28;20523;-66
2023/08/26 08:13:24;;;;;;;7.37;4.33;;;23.50;98.00;;;;;;5049494;28;20799;-67
2023/08/26 08:15:52;;;;;;;5.83;3.60;;;23.30;98.00;;;;;;5050895;28;20449;-66
2023/08/26 08:18:19;;;;;;;6.70;3.70;;;23.10;98.00;;;;;;5050247;28;20454;-66
2023/08/26 08:20:46;;;;;;;6.63;4.20;;;23.20;98.00;;;;;;5050639;28;20461;-66
2023/08/26 08:23:13;;;;;;;6.73;3.80;;;23.30;98.00;;;;;;5050615;28;20965;-66
2023/08/26 08:25:40;;;;;;;6.87;4.50;;;23.30;98.00;;;;;;5049853;28;20466;-66
2023/08/26 08:28:07;;;;;;;7.17;3.97;;;23.30;98.00;;;;;;5050711;28;20853;-66
2023/08/26 08:30:34;;;;;;;6.07;3.70;;;23.50;98.00;;;;;;5050869;28;20446;-66
2023/08/26 08:33:03;;;;;;;10.00;4.13;;;23.50;98.00;;;;;;5050855;28;20454;-66
2023/08/26 08:35:30;;;;;;;6.13;4.00;;;23.60;98.00;;;;;;5050968;28;20458;-65
2023/08/26 08:37:57;;;;;;;7.23;3.87;;;23.70;98.00;;;;;;5051006;28;20470;-65
2023/08/26 08:40:24;;;;;;;4.63;3.47;;;23.60;98.00;;;;;;5050833;28;20798;-66
2023/08/26 08:42:53;;;;;;;7.70;3.90;;;23.60;98.00;;;;;;5050776;28;20457;-66
2023/08/26 08:45:24;;;;;;;8.23;4.37;;;23.40;98.00;;;;;;5053277;28;20955;-65
2023/08/26 08:47:53;;;;;;;8.10;3.90;;;23.50;98.00;;;;;;5054392;28;20485;-66
2023/08/26 08:50:24;;;;;;;5.97;3.97;;;23.30;98.00;;;;;;5054189;28;20477;-66
2023/08/26 08:52:55;;;;;;;6.67;3.83;;;23.10;98.00;;;;;;5053977;28;20511;-66
2023/08/26 08:55:23;;;;;;;7.30;3.77;;;23.00;98.00;;;;;;5052901;28;20952;-65
2023/08/26 08:57:52;;;;;;;6.90;3.80;;;23.10;98.00;;;;;;5054104;28;20450;-66
2023/08/26 09:00:20;;;;;;;7.53;4.27;;;23.10;98.00;;;;;;5053963;28;20450;-66
2023/08/26 09:02:48;;;;;;;6.73;4.10;;;23.10;98.00;;;;;;5054010;28;20450;-65
2023/08/26 09:05:15;;;;;;;11.33;4.10;;;22.90;98.00;;;;;;5053836;28;20453;-66
2023/08/26 09:07:47;;;;;;;6.90;3.80;;;23.00;98.00;;;;;;5053791;28;20493;-65
2023/08/26 09:10:14;;;;;;;6.50;3.90;;;23.00;98.00;;;;;;5053975;28;20481;-65
2023/08/26 09:12:42;;;;;;;8.10;4.13;;;23.00;98.00;;;;;;5052552;28;20453;-66
2023/08/26 09:15:09;;;;;;;11.50;4.20;;;23.10;98.00;;;;;;5052091;28;21133;-65
2023/08/26 09:17:36;;;;;;;5.70;3.77;;;23.20;98.00;;;;;;5053905;28;20508;-66
2023/08/26 09:20:05;;;;;;;6.50;4.33;;;23.40;98.00;;;;;;5053656;28;20496;-67
2023/08/26 09:22:33;;;;;;;8.20;3.93;;;23.40;98.00;;;;;;5053629;28;20450;-66
2023/08/26 09:25:04;;;;;;;5.80;4.00;;;23.30;98.00;;;;;;5053401;28;20604;-65
2023/08/26 09:27:34;;;;;;;9.20;4.30;;;23.30;98.00;;;;;;5053509;28;20482;-65
2023/08/26 09:30:03;;;;;;;6.37;3.87;;;23.20;98.00;;;;;;5053898;28;20831;-66
2023/08/26 09:32:34;;;;;;;7.60;4.50;;;23.10;98.00;;;;;;5053648;28;21027;-66
2023/08/26 09:35:16;;;;;;;7.30;3.80;;;23.10;98.00;;;;;;5053341;28;20454;-66
2023/08/26 09:37:44;;;;;;;11.03;3.97;;;23.00;98.00;;;;;;5053200;28;20461;-66
2023/08/26 09:40:15;;;;;;;6.27;3.50;;;23.20;98.00;;;;;;5053248;28;20456;-67
2023/08/26 09:42:42;;;;;;;8.23;4.37;;;23.40;98.00;;;;;;5052695;28;20462;-66
2023/08/26 09:45:11;;;;;;;11.10;4.40;;;23.50;98.00;;;;;;5052724;28;20457;-65
2023/08/26 09:47:38;;;;;;;8.17;4.00;;;23.60;98.00;;;;;;5052868;28;20892;-65
2023/08/26 09:50:06;;;;;;;10.20;4.33;;;23.80;98.00;;;;;;5052688;28;20454;-65
2023/08/26 09:52:42;;;;;;;8.10;4.43;;;23.80;98.00;;;;;;5052721;28;20458;-66
2023/08/26 09:55:10;;;;;;;8.00;4.43;;;23.90;98.00;;;;;;5051832;28;20449;-65
2023/08/26 09:57:38;;;;;;;11.40;4.73;;;23.90;98.00;;;;;;5053120;28;20461;-66
2023/08/26 10:00:08;;;;;;;7.33;4.40;;;23.90;98.00;;;;;;5052558;28;20461;-66
2023/08/26 10:02:39;;;;;;;8.50;4.30;;;23.90;98.00;;;;;;5053059;28;20477;-66
2023/08/26 10:05:14;;;;;;;6.40;4.17;;;23.80;98.00;;;;;;5052706;28;20450;-65
2023/08/26 10:07:42;;;;;;;6.93;3.83;;;23.80;98.00;;;;;;5052928;28;20481;-65
2023/08/26 10:12:42;;;;;;;13.80;5.13;;;23.90;98.00;;;;;;5016732;28;20485;-65
2023/08/26 10:15:13;;;;;;;6.40;4.17;;;24.00;98.00;;;;;;5016292;28;20478;-65
2023/08/26 10:20:13;;;;;;;7.20;4.67;;;24.10;98.00;;;;;;5030820;28;20483;-65
2023/08/26 10:22:41;;;;;;;7.20;4.20;;;24.10;98.00;;;;;;5033241;28;20459;-65
2023/08/26 10:25:10;;;;;;;7.00;4.20;;;24.10;98.00;;;;;;5032932;28;20816;-65
2023/08/26 10:27:40;;;;;;;8.27;4.77;;;24.00;98.00;;;;;;5258445;22;21010;-65
2023/08/26 10:30:08;;;;;;;8.33;4.47;;;24.00;98.00;;;;;;5072526;28;20511;-65
2023/08/26 10:32:43;;;;;;;9.80;4.70;;;23.70;98.00;;;;;;5072414;28;20457;-65
2023/08/26 10:35:12;;;;;;;7.80;4.47;;;23.70;98.00;;;;;;5072462;28;20440;-66
2023/08/26 10:37:40;;;;;;;7.47;4.37;;;23.90;98.00;;;;;;5072398;28;20540;-66
2023/08/26 10:40:08;;;;;;;9.00;4.47;;;24.00;98.00;;;;;;5070880;28;20444;-66
2023/08/26 10:43:00;;;;;;;7.63;4.50;;;24.20;98.00;;;;;;5072429;28;20807;-66
2023/08/26 10:45:27;;;;;;;8.17;4.27;;;24.20;98.00;;;;;;5071692;28;20883;-65
2023/08/26 10:47:55;;;;;;;8.83;4.90;;;24.30;98.00;;;;;;5072191;28;20487;-65
2023/08/26 10:50:25;;;;;;;7.00;4.23;;;24.40;98.00;;;;;;5072057;28;20502;-65
2023/08/26 10:52:54;;;;;;;8.00;4.50;;;24.50;98.00;;;;;;5072477;28;20449;-66
2023/08/26 10:55:22;;;;;;;9.40;4.77;;;24.60;98.00;;;;;;5072186;28;20445;-66
2023/08/26 10:58:04;;;;;;;8.10;4.80;;;24.60;98.00;;;;;;5072318;28;20448;-65
2023/08/26 11:00:31;;;;;;;6.83;4.30;;;24.40;98.00;;;;;;5072339;28;20535;-65
2023/08/26 11:03:00;;;;;;;7.30;4.40;;;24.50;98.00;;;;;;5071987;28;20457;-66
2023/08/26 11:05:27;;;;;;;7.77;4.77;;;24.70;98.00;;;;;;5072264;28;20456;-66
2023/08/26 11:07:56;;;;;;;6.90;4.53;;;24.70;98.00;;;;;;5071540;28;20801;-65
2023/08/26 11:10:29;;;;;;;6.47;4.20;;;24.60;98.00;;;;;;5072133;28;20456;-66
2023/08/26 11:12:56;;;;;;;7.20;4.07;;;24.50;98.00;;;;;;5072355;28;20453;-66
2023/08/26 11:15:25;;;;;;;7.57;4.50;;;24.50;98.00;;;;;;5072173;28;20456;-63
2023/08/26 11:18:06;;;;;;;8.90;4.70;;;24.60;98.00;;;;;;5071894;28;20522;-64
2023/08/26 11:20:33;;;;;;;8.63;4.20;;;24.70;98.00;;;;;;5071932;28;20456;-64
2023/08/26 11:23:01;;;;;;;8.97;4.80;;;24.70;98.00;;;;;;5071920;28;20470;-65
2023/08/26 11:25:28;;;;;;;7.77;4.10;;;24.90;98.00;;;;;;5071989;28;20460;-64
2023/08/26 11:28:01;;;;;;;7.70;4.30;;;25.00;98.00;;;;;;5071545;28;20464;-64
2023/08/26 11:30:30;;;;;;;12.20;4.40;;;25.20;98.00;;;;;;5071891;28;20947;-63
2023/08/26 11:33:00;;;;;;;7.30;4.43;;;25.30;98.00;;;;;;5071851;28;20491;-65
2023/08/26 11:35:28;;;;;;;6.90;4.37;;;25.30;98.00;;;;;;5071769;28;20496;-64
2023/08/26 11:37:55;;;;;;;6.00;4.03;;;25.10;98.00;;;;;;5071885;28;20853;-64
2023/08/26 11:40:24;;;;;;;7.20;4.37;;;25.10;98.00;;;;;;5070461;28;20927;-63
2023/08/26 11:42:51;;;;;;;11.33;4.90;;;25.00;98.00;;;;;;5071648;28;21043;-63
2023/08/26 11:45:18;;;;;;;8.90;4.17;;;24.70;98.00;;;;;;5071567;28;20453;-63
2023/08/26 11:47:46;;;;;;;7.47;4.57;;;24.60;98.00;;;;;;5071766;28;20453;-64
2023/08/26 11:50:13;;;;;;;7.20;4.57;;;24.70;98.00;;;;;;5071493;28;20480;-63
2023/08/26 11:52:41;;;;;;;7.13;4.80;;;24.70;98.00;;;;;;5071743;28;20480;-64
2023/08/26 11:55:09;;;;;;;7.00;4.50;;;24.70;98.00;;;;;;5071659;28;20476;-63
2023/08/26 11:57:39;;;;;;;7.53;4.70;;;24.60;98.00;;;;;;5071683;28;20876;-64
2023/08/26 12:00:09;;;;;;;10.43;4.10;;;24.50;98.00;;;;;;5071829;28;20460;-64
2023/08/26 12:02:36;;;;;;;8.20;4.67;;;24.30;98.00;;;;;;5071793;28;20543;-64
2023/08/26 12:05:06;;;;;;;5.80;4.30;;;24.30;98.00;;;;;;5071874;28;20574;-63
2023/08/26 12:07:33;;;;;;;7.63;4.70;;;24.20;98.00;;;;;;5071868;28;20453;-64
2023/08/26 12:10:11;;;;;;;8.47;4.60;;;24.00;98.00;;;;;;5071796;28;20534;-64
2023/08/26 12:12:39;;;;;;;8.50;4.50;;;24.00;98.00;;;;;;5071488;28;20931;-64
2023/08/26 12:15:07;;;;;;;8.00;4.53;;;23.90;98.00;;;;;;5071520;28;20860;-64
2023/08/26 12:17:43;;;;;;;11.63;5.17;;;23.60;98.00;;;;;;5078301;28;20451;-65
2023/08/26 12:20:23;;;;;;;10.37;5.00;;;23.50;98.00;;;;;;5094964;28;20800;-64
2023/08/26 12:22:50;;;;;;;8.00;4.40;;;23.40;98.00;;;;;;5094796;28;20452;-64
2023/08/26 12:25:19;;;;;;;8.57;4.60;;;23.60;98.00;;;;;;5094559;28;20443;-66
2023/08/26 12:27:46;;;;;;;9.43;4.40;;;23.50;98.00;;;;;;5093107;28;20864;-65
2023/08/26 12:30:15;;;;;;;9.00;4.77;;;23.40;98.00;;;;;;5094367;28;20648;-66
2023/08/26 12:32:42;;;;;;;8.50;4.73;;;23.20;98.00;;;;;;5094702;28;20444;-64
2023/08/26 12:35:13;;;;;;;8.10;4.10;;;22.90;98.00;;;;;;5094480;28;20867;-64
2023/08/26 12:37:41;;;;;;;7.70;4.70;;;22.90;98.00;;;;;;5094134;28;20459;-64
2023/08/26 12:40:10;;;;;;;8.70;5.07;;;23.00;98.00;;;;;;5094349;28;20459;-62
2023/08/26 12:42:37;;;;;;;7.27;4.93;;;23.00;98.00;;;;;;5094392;28;20450;-64
2023/08/26 12:45:05;;;;;;;8.10;4.40;;;23.00;98.00;;;;;;5094005;28;20505;-64
2023/08/26 12:47:32;;;;;;;8.10;4.33;;;23.00;98.00;;;;;;5094199;28;20456;-62
2023/08/26 12:49:59;;;;;;;7.17;4.67;;;22.90;98.00;;;;;;5094020;28;20536;-63
2023/08/26 12:52:27;;;;;;;8.07;4.80;;;22.60;98.00;;;;;;5094136;28;20451;-65
2023/08/26 12:54:56;;;;;;;6.70;4.53;;;22.30;98.00;;;;;;5093997;28;20557;-63